Time;durP1;ratioP1;P1;durP2;ratioP2;P2;SDS_P1;SDS_P2;PMS_P1;PMS_P2;Temp;Humidity;BMP_temperature;BMP_pressure;BME280_temperature;BME280_humidity;BME280_pressure;Samples;Min_cycle;Max_cycle;Signal;HPM_P1;HPM_P2
2023/08/04 00:01:06;;;;;;;6.40;0.80;;;;;;;20.87;100.00;100846.77;104681;1254;72463;-49
2023/08/04 00:03:34;;;;;;;2.70;0.60;;;;;;;20.86;100.00;100849.20;104802;1255;60073;-49
2023/08/04 00:06:07;;;;;;;1.40;0.70;;;;;;;20.85;100.00;100847.67;108848;1254;60057;-51
2023/08/04 00:08:34;;;;;;;1.30;0.70;;;;;;;20.83;100.00;100853.13;108898;1256;75166;-51
2023/08/04 00:11:02;;;;;;;1.30;0.60;;;;;;;20.81;100.00;100853.23;108891;1254;66923;-51
2023/08/04 00:13:30;;;;;;;0.60;0.60;;;;;;;20.80;100.00;100850.41;108876;1257;71646;-52
2023/08/04 00:16:06;;;;;;;0.90;0.50;;;;;;;20.79;100.00;100846.48;105215;1258;60270;-51
2023/08/04 00:18:33;;;;;;;1.00;0.60;;;;;;;20.78;100.00;100855.64;104796;1260;59647;-49
2023/08/04 00:21:02;;;;;;;0.80;0.60;;;;;;;20.79;100.00;100848.27;104823;1260;70798;-49
2023/08/04 00:23:29;;;;;;;1.00;0.60;;;;;;;20.80;100.00;100853.56;104731;1254;66802;-49
2023/08/04 00:25:57;;;;;;;1.30;1.10;;;;;;;20.79;100.00;100851.73;104927;1259;71763;-49
2023/08/04 00:28:24;;;;;;;3.70;0.70;;;;;;;20.79;100.00;100849.38;104914;1256;59620;-50
2023/08/04 00:30:51;;;;;;;0.70;0.70;;;;;;;20.78;100.00;100844.67;104710;1254;60694;-50
2023/08/04 00:33:19;;;;;;;0.70;0.60;;;;;;;20.78;100.00;100843.08;104775;1260;73010;-50
2023/08/04 00:35:46;;;;;;;2.10;0.70;;;;;;;20.77;100.00;100836.94;104772;1256;65882;-49
2023/08/04 00:38:14;;;;;;;1.00;0.80;;;;;;;20.74;100.00;100833.31;104695;1260;73102;-51
2023/08/04 00:40:41;;;;;;;3.50;0.70;;;;;;;20.72;100.00;100832.91;104711;1262;59755;-50
2023/08/04 00:43:09;;;;;;;1.40;0.60;;;;;;;20.70;100.00;100836.19;104762;1254;59975;-50
2023/08/04 00:45:36;;;;;;;1.50;0.60;;;;;;;20.67;100.00;100835.11;105045;1257;72734;-51
2023/08/04 00:48:04;;;;;;;7.20;0.70;;;;;;;20.64;100.00;100835.69;105202;1254;66894;-49
2023/08/04 00:50:32;;;;;;;2.60;0.50;;;;;;;20.63;100.00;100834.17;104803;1257;74530;-49
2023/08/04 00:53:00;;;;;;;1.20;0.50;;;;;;;20.62;100.00;100835.69;104807;1254;61577;-50
2023/08/04 00:55:27;;;;;;;2.70;0.70;;;;;;;20.61;100.00;100836.48;104908;1254;60027;-48
2023/08/04 00:57:55;;;;;;;10.20;1.60;;;;;;;20.61;100.00;100836.48;104824;1257;71808;-51
2023/08/04 01:00:22;;;;;;;7.30;1.00;;;;;;;20.61;100.00;100834.13;104911;1260;65571;-50
2023/08/04 01:02:50;;;;;;;7.20;1.20;;;;;;;20.61;100.00;100836.86;104729;1257;72433;-50
2023/08/04 01:05:18;;;;;;;4.10;0.80;;;;;;;20.61;100.00;100835.56;105009;1254;60686;-50
2023/08/04 01:08:00;;;;;;;9.90;1.40;;;;;;;20.61;100.00;100839.96;104940;1258;60437;-49
2023/08/04 01:10:31;;;;;;;9.90;1.10;;;;;;;20.59;100.00;100845.72;105487;1258;73470;-49
2023/08/04 01:13:06;;;;;;;4.10;1.30;;;;;;;20.58;100.00;100833.08;104862;1257;66766;-49
2023/08/04 01:15:33;;;;;;;9.30;1.20;;;;;;;20.56;100.00;100833.55;104907;1258;72660;-51
2023/08/04 01:18:01;;;;;;;1.20;0.60;;;;;;;20.54;100.00;100824.03;104935;1253;61616;-54
2023/08/04 01:20:28;;;;;;;3.50;0.90;;;;;;;20.52;100.00;100819.63;104982;1260;60170;-50
2023/08/04 01:22:56;;;;;;;2.00;0.70;;;;;;;20.50;100.00;100811.59;104990;1253;73739;-49
2023/08/04 01:25:31;;;;;;;2.20;0.60;;;;;;;20.50;100.00;100812.36;105012;1260;66882;-50
2023/08/04 01:28:00;;;;;;;1.10;0.50;;;;;;;20.49;100.00;100822.27;105062;1259;71658;-50
2023/08/04 01:30:30;;;;;;;0.60;0.60;;;;;;;20.49;100.00;100822.09;104998;1259;60424;-49
2023/08/04 01:32:58;;;;;;;0.70;0.60;;;;;;;20.49;100.00;100826.95;105071;1255;60994;-50
2023/08/04 01:35:26;;;;;;;1.70;0.80;;;;;;;20.51;100.00;100830.30;105183;1257;73534;-49
2023/08/04 01:37:54;;;;;;;0.80;0.60;;;;;;;20.53;100.00;100830.86;104649;1260;66543;-50
2023/08/04 01:40:21;;;;;;;1.60;0.60;;;;;;;20.53;100.00;100836.33;104659;1253;73177;-50
2023/08/04 01:42:48;;;;;;;2.60;0.60;;;;;;;20.53;100.00;100841.25;104634;1258;62031;-50
2023/08/04 01:45:16;;;;;;;0.90;0.60;;;;;;;20.53;100.00;100838.93;104703;1254;59782;-49
2023/08/04 01:47:44;;;;;;;1.10;0.70;;;;;;;20.51;100.00;100832.99;104701;1257;73022;-47
2023/08/04 01:50:12;;;;;;;1.00;0.70;;;;;;;20.50;100.00;100830.96;105108;1258;67907;-49
2023/08/04 01:52:39;;;;;;;0.80;0.60;;;;;;;20.48;100.00;100829.23;105088;1257;72901;-50
2023/08/04 01:55:06;;;;;;;1.30;0.60;;;;;;;20.47;100.00;100829.67;104926;1256;62482;-49
2023/08/04 01:57:34;;;;;;;0.80;0.70;;;;;;;20.46;100.00;100825.40;104935;1254;60231;-49
2023/08/04 02:00:02;;;;;;;2.00;0.90;;;;;;;20.44;100.00;100824.05;105124;1260;71831;-50
2023/08/04 02:02:38;;;;;;;0.70;0.50;;;;;;;20.44;100.00;100837.17;105010;1254;66774;-49
2023/08/04 02:05:06;;;;;;;0.80;0.50;;;;;;;20.44;100.00;100839.20;106158;1260;73012;-48
2023/08/04 02:07:33;;;;;;;1.50;0.70;;;;;;;20.44;100.00;100837.20;105395;1260;60129;-51
2023/08/04 02:10:02;;;;;;;0.80;0.70;;;;;;;20.44;100.00;100837.03;104974;1253;59728;-51
2023/08/04 02:12:29;;;;;;;2.70;0.80;;;;;;;20.44;100.00;100838.85;105880;1251;72790;-48
2023/08/04 02:14:57;;;;;;;3.10;0.70;;;;;;;20.43;100.00;100839.46;105008;1264;66775;-49
2023/08/04 02:17:24;;;;;;;0.70;0.70;;;;;;;20.42;100.00;100835.55;104906;1254;72680;-49
2023/08/04 02:19:52;;;;;;;1.50;0.70;;;;;;;20.39;100.00;100828.26;104887;1254;61710;-49
2023/08/04 02:22:19;;;;;;;1.10;0.70;;;;;;;20.36;100.00;100825.35;104880;1252;60464;-47
2023/08/04 02:24:47;;;;;;;3.30;0.60;;;;;;;20.33;100.00;100820.24;104892;1259;73462;-49
2023/08/04 02:27:14;;;;;;;0.80;0.70;;;;;;;20.31;100.00;100822.59;105067;1259;66818;-49
2023/08/04 02:29:41;;;;;;;0.60;0.60;;;;;;;20.29;100.00;100821.79;104924;1257;72635;-48
2023/08/04 02:32:11;;;;;;;1.10;0.60;;;;;;;20.29;100.00;100827.13;105881;1254;62160;-49
2023/08/04 02:34:38;;;;;;;0.90;0.70;;;;;;;20.27;100.00;100832.68;105015;1255;59835;-50
2023/08/04 02:37:05;;;;;;;1.60;0.60;;;;;;;20.27;100.00;100830.69;105011;1257;71542;-49
2023/08/04 02:39:34;;;;;;;0.60;0.60;;;;;;;20.28;100.00;100836.14;104990;1258;65485;-50
2023/08/04 02:42:02;;;;;;;3.00;0.70;;;;;;;20.27;100.00;100834.91;104992;1260;72645;-50
2023/08/04 02:44:29;;;;;;;1.20;0.70;;;;;;;20.27;100.00;100837.83;104814;1260;60456;-49
2023/08/04 02:46:58;;;;;;;1.10;0.70;;;;;;;20.27;100.00;100838.55;105005;1254;60423;-49
2023/08/04 02:49:25;;;;;;;4.80;0.70;;;;;;;20.26;100.00;100836.45;105080;1260;73756;-50
2023/08/04 02:51:52;;;;;;;1.40;0.70;;;;;;;20.24;100.00;100844.27;105057;1257;68631;-50
2023/08/04 02:54:19;;;;;;;1.50;0.70;;;;;;;20.21;100.00;100843.73;104859;1260;72454;-51
2023/08/04 02:56:47;;;;;;;2.20;0.90;;;;;;;20.20;100.00;100850.55;104958;1260;60628;-50
2023/08/04 02:59:14;;;;;;;0.80;0.70;;;;;;;20.18;100.00;100851.39;104960;1267;60593;-48
2023/08/04 03:01:41;;;;;;;0.60;0.60;;;;;;;20.16;100.00;100846.63;104881;1254;73024;-49
2023/08/04 03:04:09;;;;;;;0.90;0.60;;;;;;;20.17;100.00;100846.03;104940;1254;65788;-48
2023/08/04 03:06:36;;;;;;;0.80;0.60;;;;;;;20.16;100.00;100851.73;105000;1260;71353;-48
2023/08/04 03:09:03;;;;;;;1.20;0.60;;;;;;;20.18;100.00;100854.36;104911;1260;60620;-50
2023/08/04 03:11:30;;;;;;;1.20;0.70;;;;;;;20.19;100.00;100855.52;104952;1258;60440;-47
2023/08/04 03:13:58;;;;;;;2.10;0.70;;;;;;;20.20;100.00;100861.09;104853;1254;74290;-48
2023/08/04 03:16:25;;;;;;;1.60;0.80;;;;;;;20.22;100.00;100862.80;104915;1258;66920;-49
2023/08/04 03:18:52;;;;;;;1.70;0.70;;;;;;;20.25;100.00;100865.54;104881;1257;73159;-50
2023/08/04 03:21:20;;;;;;;1.50;0.80;;;;;;;20.27;100.00;100864.80;104817;1255;60430;-49
2023/08/04 03:23:47;;;;;;;3.30;0.80;;;;;;;20.28;100.00;100866.21;104941;1253;60590;-48
2023/08/04 03:26:14;;;;;;;1.00;0.80;;;;;;;20.28;100.00;100866.73;104956;1254;72558;-49
2023/08/04 03:28:42;;;;;;;1.00;0.80;;;;;;;20.28;100.00;100866.39;104934;1263;67553;-49
2023/08/04 03:31:09;;;;;;;0.80;0.70;;;;;;;20.28;100.00;100869.12;104750;1257;72406;-48
2023/08/04 03:33:36;;;;;;;1.00;0.90;;;;;;;20.27;100.00;100871.70;104638;1260;61654;-50
2023/08/04 03:36:04;;;;;;;1.70;0.80;;;;;;;20.28;100.00;100871.50;104732;1257;60300;-49
2023/08/04 03:38:31;;;;;;;1.50;0.60;;;;;;;20.29;100.00;100870.88;104780;1254;72712;-50
2023/08/04 03:40:58;;;;;;;1.80;0.70;;;;;;;20.30;100.00;100878.64;104891;1259;65497;-50
2023/08/04 03:43:26;;;;;;;0.70;0.60;;;;;;;20.31;100.00;100879.28;104875;1255;71740;-48
2023/08/04 03:45:53;;;;;;;3.20;0.70;;;;;;;20.33;100.00;100880.95;104819;1260;60513;-49
2023/08/04 03:48:20;;;;;;;2.50;0.70;;;;;;;20.35;100.00;100885.41;104789;1260;60873;-50
2023/08/04 03:50:48;;;;;;;2.30;0.70;;;;;;;20.38;100.00;100886.44;104917;1255;71674;-50
2023/08/04 03:53:15;;;;;;;2.20;0.80;;;;;;;20.42;100.00;100888.91;104677;1264;67528;-48
2023/08/04 03:55:42;;;;;;;2.10;0.80;;;;;;;20.46;100.00;100894.29;104859;1260;72903;-49
2023/08/04 03:58:10;;;;;;;1.00;0.90;;;;;;;20.50;100.00;100899.49;104863;1256;60465;-50
2023/08/04 04:00:37;;;;;;;3.50;0.80;;;;;;;20.54;100.00;100905.98;104872;1259;61372;-49
2023/08/04 04:03:05;;;;;;;0.80;0.80;;;;;;;20.58;100.00;100918.46;104942;1258;73871;-48
2023/08/04 04:05:32;;;;;;;2.10;0.80;;;;;;;20.60;100.00;100928.99;104917;1257;69976;-50
2023/08/04 04:08:00;;;;;;;1.20;0.60;;;;;;;20.64;100.00;100938.44;104798;1254;72464;-51
2023/08/04 04:10:27;;;;;;;2.00;0.80;;;;;;;20.64;100.00;100938.75;104780;1259;62203;-50
2023/08/04 04:12:54;;;;;;;2.90;0.80;;;;;;;20.66;100.00;100936.41;104920;1257;60505;-49
2023/08/04 04:15:22;;;;;;;4.10;0.80;;;;;;;20.70;100.00;100938.69;104793;1254;72620;-51
2023/08/04 04:17:49;;;;;;;1.70;0.80;;;;;;;20.76;100.00;100946.47;104826;1263;66447;-49
2023/08/04 04:20:16;;;;;;;7.90;1.20;;;;;;;20.84;100.00;100952.13;104781;1254;71425;-49
2023/08/04 04:22:44;;;;;;;3.20;1.10;;;;;;;20.93;100.00;100956.90;104855;1260;61671;-50
2023/08/04 04:25:11;;;;;;;1.20;0.80;;;;;;;21.02;100.00;100965.73;104882;1257;60495;-49
2023/08/04 04:27:38;;;;;;;0.80;0.80;;;;;;;21.10;100.00;100971.55;104897;1258;73986;-51
2023/08/04 04:30:06;;;;;;;13.40;1.40;;;;;;;21.17;100.00;100979.44;104754;1259;65833;-48
2023/08/04 04:32:33;;;;;;;1.20;1.10;;;;;;;21.26;100.00;100986.83;104862;1260;71526;-49
2023/08/04 04:35:01;;;;;;;3.40;0.90;;;;;;;21.34;100.00;100992.42;104791;1255;60511;-49
2023/08/04 04:37:28;;;;;;;1.00;0.80;;;;;;;21.42;100.00;101005.36;104865;1254;60549;-49
2023/08/04 04:39:56;;;;;;;1.20;1.00;;;;;;;21.51;100.00;101014.56;104931;1260;75668;-51
2023/08/04 04:42:23;;;;;;;2.20;0.90;;;;;;;21.60;100.00;101025.81;104934;1258;68034;-49
2023/08/04 04:44:51;;;;;;;2.20;0.80;;;;;;;21.66;100.00;101034.05;105024;1254;73310;-50
2023/08/04 04:47:18;;;;;;;4.10;1.10;;;;;;;21.73;100.00;101046.33;104742;1254;60578;-50
2023/08/04 04:49:45;;;;;;;1.00;0.80;;;;;;;21.80;100.00;101056.98;105050;1260;60882;-49
2023/08/04 04:52:14;;;;;;;1.90;0.70;;;;;;;21.86;100.00;101073.08;104849;1254;72534;-50
2023/08/04 04:54:41;;;;;;;0.90;0.80;;;;;;;21.94;100.00;101081.52;105633;1254;67874;-51
2023/08/04 04:57:10;;;;;;;0.90;0.80;;;;;;;22.01;100.00;101088.89;104625;1258;72754;-50
2023/08/04 04:59:37;;;;;;;0.80;0.80;;;;;;;22.07;100.00;101103.02;104653;1260;62593;-50
2023/08/04 05:02:05;;;;;;;1.90;0.70;;;;;;;22.13;100.00;101115.58;104773;1253;60514;-51
2023/08/04 05:04:32;;;;;;;1.30;0.90;;;;;;;22.19;100.00;101131.36;109046;1254;73223;-50
2023/08/04 05:07:00;;;;;;;1.70;0.80;;;;;;;22.26;100.00;101146.94;109217;1254;65607;-52
2023/08/04 05:09:28;;;;;;;2.10;0.80;;;;;;;22.33;100.00;101159.21;109115;1254;72818;-53
2023/08/04 05:11:55;;;;;;;1.80;1.00;;;;;;;22.41;100.00;101171.61;109065;1254;58746;-52
2023/08/04 05:14:22;;;;;;;2.60;0.90;;;;;;;22.49;100.00;101187.81;109124;1254;59646;-51
2023/08/04 05:16:50;;;;;;;2.80;0.80;;;;;;;22.58;100.00;101195.33;107039;1260;73734;-50
2023/08/04 05:19:17;;;;;;;1.60;0.80;;;;;;;22.67;100.00;101214.45;105034;1254;66799;-50
2023/08/04 05:21:44;;;;;;;1.60;0.80;;;;;;;22.76;100.00;101225.51;105151;1254;73050;-49
2023/08/04 05:24:12;;;;;;;3.50;1.20;;;;;;;22.86;100.00;101243.17;105194;1254;61713;-50
2023/08/04 05:26:39;;;;;;;2.00;0.90;;;;;;;22.97;100.00;101264.17;105060;1254;60505;-50
2023/08/04 05:29:07;;;;;;;1.00;0.90;;;;;;;23.08;100.00;101280.91;104970;1254;73793;-51
2023/08/04 05:31:34;;;;;;;2.00;1.00;;;;;;;23.19;100.00;101296.73;105053;1261;66781;-51
2023/08/04 05:34:01;;;;;;;4.40;1.30;;;;;;;23.28;100.00;101313.78;105039;1255;72683;-51
2023/08/04 05:36:29;;;;;;;2.20;0.90;;;;;;;23.34;100.00;101323.49;105040;1259;60549;-52
2023/08/04 05:38:56;;;;;;;1.80;1.00;;;;;;;23.40;100.00;101338.27;105052;1260;60853;-51
2023/08/04 05:41:24;;;;;;;1.40;0.90;;;;;;;23.45;100.00;101350.73;104990;1260;74227;-49
2023/08/04 05:43:51;;;;;;;2.00;0.90;;;;;;;23.49;100.00;101361.79;105042;1257;66920;-52
2023/08/04 05:46:18;;;;;;;1.80;0.90;;;;;;;23.52;100.00;101374.77;105003;1254;72430;-51
2023/08/04 05:48:46;;;;;;;4.50;1.00;;;;;;;23.54;100.00;101380.86;104986;1258;61708;-50
2023/08/04 05:51:14;;;;;;;6.30;0.80;;;;;;;23.55;100.00;101391.96;104958;1254;60426;-52
2023/08/04 05:53:43;;;;;;;2.30;1.00;;;;;;;23.56;100.00;101399.17;109117;1254;73837;-49
2023/08/04 05:56:10;;;;;;;1.20;0.90;;;;;;;23.60;100.00;101411.91;109111;1254;66454;-50
2023/08/04 05:58:38;;;;;;;1.30;0.80;;;;;;;23.64;100.00;101424.02;109136;1254;72680;-49
2023/08/04 06:01:06;;;;;;;1.10;1.00;;;;;;;23.70;100.00;101435.46;109123;1257;58799;-49
2023/08/04 06:03:33;;;;;;;1.80;1.00;;;;;;;23.78;100.00;101447.95;109122;1257;60068;-50
2023/08/04 06:06:01;;;;;;;0.80;0.80;;;;;;;23.85;100.00;101464.40;109164;1254;72835;-50
2023/08/04 06:08:28;;;;;;;1.00;0.90;;;;;;;23.93;100.00;101472.80;109137;1254;66755;-50
2023/08/04 06:10:55;;;;;;;2.30;0.80;;;;;;;24.01;100.00;101487.02;109024;1254;72682;-50
2023/08/04 06:13:23;;;;;;;2.90;0.90;;;;;;;24.10;100.00;101508.09;109063;1258;62278;-50
2023/08/04 06:15:50;;;;;;;1.30;1.00;;;;;;;24.21;100.00;101523.86;109174;1253;59213;-51
2023/08/04 06:18:17;;;;;;;7.40;0.90;;;;;;;24.30;100.00;101538.75;109100;1254;72626;-51
2023/08/04 06:20:47;;;;;;;1.00;0.90;;;;;;;24.39;100.00;101562.40;109157;1253;67250;-49
2023/08/04 06:23:15;;;;;;;10.40;1.50;;;;;;;24.49;100.00;101587.08;109130;1254;73278;-50
2023/08/04 06:25:42;;;;;;;1.30;0.80;;;;;;;24.60;100.00;101602.42;109144;1254;60049;-51
2023/08/04 06:28:09;;;;;;;3.10;1.00;;;;;;;24.69;100.00;101620.07;109145;1254;60450;-53
2023/08/04 06:30:37;;;;;;;4.40;1.00;;;;;;;24.78;100.00;101645.37;107720;1254;73877;-50
2023/08/04 06:33:04;;;;;;;2.00;0.80;;;;;;;24.87;100.00;101666.33;104947;1260;66115;-51
2023/08/04 06:35:31;;;;;;;1.50;1.00;;;;;;;24.96;100.00;101683.70;105307;1255;73762;-51
2023/08/04 06:37:59;;;;;;;1.60;0.90;;;;;;;25.04;100.00;101701.86;104799;1255;60383;-50
2023/08/04 06:40:27;;;;;;;2.80;1.00;;;;;;;25.09;100.00;101722.38;104973;1254;60446;-50
2023/08/04 06:42:54;;;;;;;2.00;0.90;;;;;;;25.16;100.00;101742.41;104933;1258;74205;-51
2023/08/04 06:45:21;;;;;;;1.10;1.00;;;;;;;25.21;100.00;101759.80;104866;1254;65559;-52
2023/08/04 06:47:49;;;;;;;1.60;0.80;;;;;;;25.26;100.00;101777.77;105014;1254;72653;-52
2023/08/04 06:50:16;;;;;;;1.30;0.80;;;;;;;25.32;100.00;101800.27;104887;1254;61713;-51
2023/08/04 06:52:44;;;;;;;1.20;1.10;;;;;;;25.39;100.00;101824.94;105026;1254;60479;-52
2023/08/04 06:55:11;;;;;;;1.10;0.90;;;;;;;25.46;100.00;101846.95;104843;1256;73829;-52
2023/08/04 06:57:38;;;;;;;1.10;0.90;;;;;;;25.53;100.00;101869.71;104956;1254;66791;-50
2023/08/04 07:00:08;;;;;;;1.30;0.90;;;;;;;25.61;100.00;101891.38;104933;1257;73113;-52
2023/08/04 07:02:36;;;;;;;1.20;1.00;;;;;;;25.69;100.00;101912.50;105552;1258;62109;-51
2023/08/04 07:05:04;;;;;;;1.50;0.90;;;;;;;25.77;100.00;101934.14;105183;1254;60603;-53
2023/08/04 07:07:31;;;;;;;2.10;0.90;;;;;;;25.83;100.00;101958.13;105087;1254;72668;-52
2023/08/04 07:09:59;;;;;;;1.20;1.00;;;;;;;25.89;100.00;101978.36;104837;1257;65995;-52
2023/08/04 07:12:26;;;;;;;3.30;0.90;;;;;;;25.96;100.00;101995.67;104935;1254;73611;-52
2023/08/04 07:14:53;;;;;;;1.70;0.90;;;;;;;26.03;100.00;102015.40;104899;1257;60552;-51
2023/08/04 07:17:21;;;;;;;2.50;0.80;;;;;;;26.09;100.00;102035.01;104841;1260;60459;-52
2023/08/04 07:19:48;;;;;;;1.20;1.00;;;;;;;26.16;100.00;102053.20;104918;1254;72190;-53
2023/08/04 07:22:16;;;;;;;1.10;0.90;;;;;;;26.21;100.00;102077.64;104888;1256;66815;-53
2023/08/04 07:24:43;;;;;;;2.70;0.80;;;;;;;26.27;100.00;102100.94;105038;1257;72818;-52
2023/08/04 07:27:10;;;;;;;1.10;0.90;;;;;;;26.30;100.00;102118.36;104903;1254;60771;-53
2023/08/04 07:29:38;;;;;;;3.50;0.90;;;;;;;26.35;100.00;102136.07;104920;1254;60457;-52
2023/08/04 07:32:06;;;;;;;2.60;1.50;;;;;;;26.40;100.00;102153.52;104915;1256;74405;-52
2023/08/04 07:34:33;;;;;;;1.20;0.90;;;;;;;26.44;100.00;102171.25;104943;1256;66804;-52
2023/08/04 07:37:00;;;;;;;1.40;0.90;;;;;;;26.47;100.00;102188.48;104947;1253;71472;-53
2023/08/04 07:39:28;;;;;;;1.20;0.80;;;;;;;26.51;100.00;102206.27;105089;1256;60798;-53
2023/08/04 07:41:55;;;;;;;2.80;0.80;;;;;;;26.56;100.00;102221.72;104958;1256;60524;-51
2023/08/04 07:44:22;;;;;;;3.90;1.10;;;;;;;26.61;100.00;102238.58;105016;1252;74137;-52
2023/08/04 07:46:50;;;;;;;1.00;0.90;;;;;;;26.68;100.00;102257.23;105223;1254;65984;-53
2023/08/04 07:49:17;;;;;;;2.70;0.90;;;;;;;26.75;100.00;102272.69;104999;1256;71759;-53
2023/08/04 07:51:44;;;;;;;1.50;0.90;;;;;;;26.82;100.00;102286.20;105051;1254;60534;-53
2023/08/04 07:54:12;;;;;;;1.10;0.90;;;;;;;26.88;100.00;102312.22;105089;1256;60449;-54
2023/08/04 07:56:39;;;;;;;0.60;0.60;;;;;;;26.96;100.00;102332.47;105116;1254;73016;-54
2023/08/04 07:59:07;;;;;;;2.20;0.70;;;;;;;27.04;100.00;102352.26;104962;1255;65488;-54
2023/08/04 08:01:34;;;;;;;0.70;0.70;;;;;;;27.13;100.00;102368.72;105009;1253;71190;-53
2023/08/04 08:04:01;;;;;;;2.00;1.10;;;;;;;27.23;100.00;102398.59;105095;1256;60559;-52
2023/08/04 08:06:29;;;;;;;2.30;0.70;;;;;;;27.32;100.00;102419.29;105722;1253;60651;-51
2023/08/04 08:08:56;;;;;;;2.10;0.70;;;;;;;27.40;100.00;102440.95;105114;1253;72624;-52
2023/08/04 08:11:23;;;;;;;1.00;0.60;;;;;;;27.49;100.00;102469.39;104889;1257;66081;-52
2023/08/04 08:13:51;;;;;;;1.20;0.70;;;;;;;27.58;100.00;102492.37;105007;1256;72647;-52
2023/08/04 08:16:18;;;;;;;0.80;0.80;;;;;;;27.65;100.00;102515.94;104861;1253;60548;-51
2023/08/04 08:18:46;;;;;;;2.90;0.70;;;;;;;27.73;100.00;102543.55;104978;1254;60549;-51
2023/08/04 08:21:13;;;;;;;1.20;0.60;;;;;;;27.81;100.00;102565.05;105109;1254;74258;-51
2023/08/04 08:23:41;;;;;;;1.20;0.70;;;;;;;27.88;100.00;102589.63;104901;1252;67600;-50
2023/08/04 08:26:08;;;;;;;0.80;0.70;;;;;;;27.95;100.00;102613.67;105179;1256;72917;-51
2023/08/04 08:28:35;;;;;;;9.00;0.80;;;;;;;28.02;100.00;102631.37;105032;1257;60472;-50
2023/08/04 08:31:03;;;;;;;0.60;0.60;;;;;;;28.09;100.00;102651.52;105131;1252;60533;-51
2023/08/04 08:33:30;;;;;;;0.80;0.70;;;;;;;28.15;100.00;102673.76;105754;1257;73853;-51
2023/08/04 08:35:58;;;;;;;7.90;0.80;;;;;;;28.23;100.00;102691.45;105056;1260;66237;-51
2023/08/04 08:38:25;;;;;;;0.90;0.70;;;;;;;28.30;100.00;102710.12;104952;1260;71867;-49
2023/08/04 08:40:53;;;;;;;2.30;0.50;;;;;;;28.36;100.00;102732.17;104839;1258;60473;-51
2023/08/04 08:43:20;;;;;;;1.90;0.60;;;;;;;28.42;100.00;102751.10;104676;1254;61777;-52
2023/08/04 08:45:47;;;;;;;0.70;0.60;;;;;;;28.48;100.00;102774.30;104974;1253;73820;-53
2023/08/04 08:48:15;;;;;;;3.00;0.70;;;;;;;28.53;100.00;102790.27;104862;1254;65646;-52
2023/08/04 08:50:42;;;;;;;1.30;0.60;;;;;;;28.60;100.00;102811.41;104786;1264;71345;-51
2023/08/04 08:53:12;;;;;;;0.50;0.50;;;;;;;28.66;100.00;102827.95;104505;1260;60557;-52
2023/08/04 08:55:42;;;;;;;0.80;0.60;;;;;;;28.73;100.00;102852.91;109051;1253;58816;-53
2023/08/04 08:58:10;;;;;;;0.90;0.50;;;;;;;28.80;100.00;102876.83;109068;1253;74333;-53
2023/08/04 09:00:37;;;;;;;1.00;0.60;;;;;;;28.85;100.00;102882.10;109051;1253;66775;-52
2023/08/04 09:03:05;;;;;;;1.00;0.50;;;;;;;28.92;100.00;102896.38;109052;1252;71440;-53
2023/08/04 09:05:33;;;;;;;1.10;0.50;;;;;;;28.99;100.00;102913.21;109119;1256;60085;-53
2023/08/04 09:08:02;;;;;;;1.00;0.50;;;;;;;29.08;100.00;102936.60;108943;1253;60500;-53
2023/08/04 09:10:33;;;;;;;1.10;0.70;;;;;;;29.16;100.00;102960.31;109096;1254;73875;-53
2023/08/04 09:13:00;;;;;;;2.00;0.60;;;;;;;29.24;100.00;102979.66;106318;1254;65540;-52
2023/08/04 09:15:33;;;;;;;2.10;0.60;;;;;;;29.32;100.00;102990.94;105060;1259;73199;-52
2023/08/04 09:18:00;;;;;;;0.70;0.70;;;;;;;29.37;100.00;103016.63;104768;1254;60470;-53
2023/08/04 09:20:28;;;;;;;1.50;0.60;;;;;;;29.43;100.00;103019.89;108934;1256;58858;-52
2023/08/04 09:22:56;;;;;;;0.60;0.50;;;;;;;29.47;100.00;103032.88;109055;1253;74641;-53
2023/08/04 09:25:23;;;;;;;0.70;0.60;;;;;;;29.52;100.00;103044.42;109193;1253;66134;-53
2023/08/04 09:27:50;;;;;;;3.10;0.50;;;;;;;29.55;100.00;103049.09;109075;1254;72429;-53
2023/08/04 09:30:18;;;;;;;1.40;0.50;;;;;;;29.59;100.00;103058.80;109128;1256;61024;-53
2023/08/04 09:32:47;;;;;;;4.20;0.60;;;;;;;29.64;100.00;103061.75;107616;1254;61960;-52
2023/08/04 09:35:14;;;;;;;0.60;0.60;;;;;;;29.70;100.00;103076.43;106475;1256;75598;-51
2023/08/04 09:37:42;;;;;;;1.80;0.50;;;;;;;29.76;100.00;103080.39;105142;1251;65467;-52
2023/08/04 09:40:17;;;;;;;1.70;0.50;;;;;;;29.82;100.00;103090.50;105091;1254;71955;-52
2023/08/04 09:42:45;;;;;;;1.50;0.50;;;;;;;29.87;100.00;103117.51;106655;1254;61139;-51
2023/08/04 09:45:14;;;;;;;0.60;0.60;;;;;;;29.91;100.00;103107.23;105478;1251;60998;-51
2023/08/04 09:47:48;;;;;;;2.30;0.60;;;;;;;29.96;100.00;103117.98;105479;1254;75988;-52
2023/08/04 09:50:19;;;;;;;0.50;0.50;;;;;;;30.01;100.00;103138.88;106705;1251;65589;-52
2023/08/04 09:52:46;;;;;;;4.20;0.60;;;;;;;30.05;100.00;103140.38;104947;1251;72706;-51
2023/08/04 09:55:14;;;;;;;0.50;0.50;;;;;;;30.08;100.00;103138.64;104820;1251;61096;-52
2023/08/04 09:57:42;;;;;;;1.20;0.60;;;;;;;30.13;100.00;103137.58;104976;1256;60900;-52
2023/08/04 10:00:11;;;;;;;1.60;0.50;;;;;;;30.15;100.00;103142.80;106010;1259;73435;-51
2023/08/04 10:02:39;;;;;;;1.40;0.50;;;;;;;30.17;100.00;103143.95;105176;1251;66905;-50
2023/08/04 10:05:07;;;;;;;0.50;0.50;;;;;;;30.18;100.00;103133.28;104815;1256;72812;-50
2023/08/04 10:07:35;;;;;;;0.70;0.60;;;;;;;30.22;100.00;103135.02;104977;1251;60423;-50
2023/08/04 10:10:06;;;;;;;1.10;0.60;;;;;;;30.26;100.00;103136.38;105151;1254;60475;-53
2023/08/04 10:12:34;;;;;;;0.60;0.60;;;;;;;30.29;100.00;103144.04;105814;1251;72641;-51
2023/08/04 10:15:01;;;;;;;1.30;0.70;;;;;;;30.33;100.00;103135.07;105216;1257;66757;-52
2023/08/04 10:17:29;;;;;;;1.40;0.50;;;;;;;30.36;100.00;103144.25;105180;1256;71357;-51
2023/08/04 10:20:04;;;;;;;3.60;0.90;;;;;;;30.39;100.00;103144.71;106064;1251;62126;-52
2023/08/04 10:22:32;;;;;;;2.70;0.60;;;;;;;30.42;100.00;103163.55;105138;1253;60627;-50
2023/08/04 10:24:59;;;;;;;1.40;0.70;;;;;;;30.45;100.00;103146.66;105133;1251;72531;-53
2023/08/04 10:27:27;;;;;;;0.80;0.70;;;;;;;30.48;100.00;103148.64;104897;1254;67370;-52
2023/08/04 10:30:22;;;;;;;0.60;0.60;;;;;;;30.52;100.00;103143.75;105143;1257;73688;-52
2023/08/04 10:33:09;;;;;;;0.70;0.60;;;;;;;30.55;100.00;103212.13;105398;1253;60558;-52
2023/08/04 10:36:23;;;;;;;2.30;0.60;;;;;;;30.56;100.00;103166.98;105183;1256;60859;-52
2023/08/04 10:38:50;;;;;;;9.90;0.90;;;;;;;30.57;100.00;103218.80;104975;1251;73873;-52
2023/08/04 10:41:18;;;;;;;2.70;0.80;;;;;;;30.59;100.00;103145.62;105518;1256;68580;-52
2023/08/04 10:44:00;;;;;;;2.30;0.70;;;;;;;30.61;100.00;103131.50;105064;1254;73137;-53
2023/08/04 10:46:27;;;;;;;0.80;0.80;;;;;;;30.64;100.00;103152.80;105029;1254;60452;-53
2023/08/04 10:51:59;;;;;;;0.70;0.70;;;;;;;30.69;100.00;102935.17;101739;1297;600584;-52
2023/08/04 10:54:26;;;;;;;0.80;0.60;;;;;;;30.70;100.00;103222.20;104028;1271;60043;-52
2023/08/04 10:56:54;;;;;;;0.70;0.60;;;;;;;30.71;100.00;103160.01;104617;1266;59257;-51
2023/08/04 10:59:21;;;;;;;0.70;0.60;;;;;;;30.72;100.00;103126.92;104054;1266;71031;-52
2023/08/04 11:01:48;;;;;;;0.70;0.70;;;;;;;30.74;100.00;103109.55;103918;1273;67434;-52
2023/08/04 11:04:16;;;;;;;1.20;0.70;;;;;;;30.74;100.00;103097.66;104564;1273;74730;-52
2023/08/04 11:06:44;;;;;;;2.50;0.80;;;;;;;30.72;100.00;103084.81;104006;1264;207094;-52
2023/08/04 11:09:11;;;;;;;1.10;0.90;;;;;;;30.72;100.00;103067.95;104234;1267;59267;-52
2023/08/04 11:11:38;;;;;;;1.10;0.80;;;;;;;30.74;100.00;103056.70;104445;1264;72328;-51
2023/08/04 11:14:09;;;;;;;0.80;0.80;;;;;;;30.75;100.00;103048.63;104333;1263;65700;-51
2023/08/04 11:16:36;;;;;;;1.50;0.70;;;;;;;30.77;100.00;103047.92;104376;1262;71421;-51